Adamsville, Rhode Island
Current Conditions -  °F | °C
As of 10:53 AM on Friday 24 Oct 2014 (Local Time) from KUUU Reporting Station
Overcast Overcast  
Wind Chill: 12°   Ceiling: 1600
Heat Index: 12°   Visibility: 10mi
Dew Point:   Wind: 13mph
Humidity: 77%   Direction: 330°NNW
Pressure: 29.7"   Gusts: 21mph
Location:  41.55°N, 71.13°W
Report Text: KUUU 241453Z AUTO 33011G18KT 10SM OVC016 12/08 A2970 RMK AO2 SLP057 60000 T01170078 51004
Loading
Personal Weather Stations






























Interactive Weather Map
Tropical Storm Tracking
New forecast layout! Learn more

10-Day Weather Forecast

Advertisements
Track Severe Weather on mobile